createdAt,value
2022-12-04T00:01:29.288Z,30.07
2022-12-04T00:04:01.034Z,25.77
2022-12-04T00:06:34.207Z,29.40
2022-12-04T00:09:03.967Z,24.90
2022-12-04T00:11:35.072Z,23.83
2022-12-04T00:14:07.463Z,27.73
2022-12-04T00:16:41.255Z,26.50
2022-12-04T00:19:11.169Z,26.07
2022-12-04T00:21:42.449Z,26.33
2022-12-04T00:24:12.267Z,30.07
2022-12-04T00:26:42.074Z,29.90
2022-12-04T00:29:12.198Z,26.37
2022-12-04T00:31:42.664Z,26.93
2022-12-04T00:34:12.833Z,27.93
2022-12-04T00:36:44.653Z,29.40
2022-12-04T00:39:14.376Z,24.80
2022-12-04T00:41:44.404Z,26.60
2022-12-04T00:44:14.350Z,28.93
2022-12-04T00:46:44.319Z,35.50
2022-12-04T00:49:14.685Z,30.00
2022-12-04T00:51:46.038Z,28.33
2022-12-04T00:54:15.929Z,26.20
2022-12-04T00:56:45.770Z,32.20
2022-12-04T00:59:15.838Z,28.27
2022-12-04T01:01:45.784Z,26.80
2022-12-04T01:04:15.849Z,24.30
2022-12-04T01:06:50.436Z,28.03
2022-12-04T01:09:20.489Z,27.83
2022-12-04T01:11:50.499Z,29.13
2022-12-04T01:14:20.510Z,29.13
2022-12-04T01:16:50.332Z,23.20
2022-12-04T01:19:20.289Z,20.17
2022-12-04T01:21:51.551Z,23.43
2022-12-04T01:24:21.838Z,24.43
2022-12-04T01:26:51.583Z,25.30
2022-12-04T01:29:21.595Z,30.57
2022-12-04T01:31:51.408Z,32.17
2022-12-04T01:34:21.211Z,25.67
2022-12-04T01:36:52.920Z,24.10
2022-12-04T01:39:23.238Z,22.80
2022-12-04T01:41:52.918Z,24.47
2022-12-04T01:44:24.418Z,24.73
2022-12-04T01:46:55.658Z,23.57
2022-12-04T01:49:30.346Z,23.60
2022-12-04T01:52:05.781Z,22.27
2022-12-04T01:54:39.137Z,24.37
2022-12-04T01:57:12.621Z,21.97
2022-12-04T01:59:45.558Z,24.53
2022-12-04T02:02:17.930Z,21.87
2022-12-04T02:04:48.639Z,22.07
2022-12-04T02:07:20.038Z,25.40
2022-12-04T02:09:56.554Z,22.53
2022-12-04T02:12:34.482Z,23.57
2022-12-04T02:15:10.197Z,26.70
2022-12-04T02:17:44.217Z,21.00
2022-12-04T02:20:25.260Z,20.10
2022-12-04T02:23:31.744Z,19.67
2022-12-04T02:26:12.434Z,21.50
2022-12-04T02:28:51.980Z,22.17
2022-12-04T02:31:23.905Z,23.20
2022-12-04T02:33:58.905Z,23.20
2022-12-04T02:36:32.154Z,23.20
2022-12-04T02:39:06.698Z,24.03
2022-12-04T02:41:41.488Z,21.43
2022-12-04T02:44:17.667Z,22.13
2022-12-04T02:46:50.570Z,21.20
2022-12-04T02:49:23.811Z,19.27
2022-12-04T02:51:55.825Z,22.00
2022-12-04T02:54:28.450Z,15.23
2022-12-04T02:56:58.848Z,18.03
2022-12-04T02:59:35.048Z,19.67
2022-12-04T03:02:11.621Z,18.97
2022-12-04T03:04:43.483Z,23.07
2022-12-04T03:07:16.640Z,20.77
2022-12-04T03:09:48.444Z,21.30
2022-12-04T03:12:23.095Z,19.70
2022-12-04T03:14:58.919Z,18.47
2022-12-04T03:17:31.384Z,18.67
2022-12-04T03:20:05.807Z,14.90
2022-12-04T03:22:40.171Z,21.10
2022-12-04T03:25:11.509Z,18.60
2022-12-04T03:27:47.210Z,16.87
2022-12-04T03:30:22.403Z,18.33
2022-12-04T03:32:57.653Z,19.60
2022-12-04T03:35:31.309Z,17.90
2022-12-04T03:38:04.937Z,17.90
2022-12-04T03:40:39.354Z,16.97
2022-12-04T03:43:15.194Z,17.63
2022-12-04T03:45:48.543Z,20.07
2022-12-04T03:48:23.326Z,17.40
2022-12-04T03:50:58.949Z,16.73
2022-12-04T03:53:35.039Z,18.00
2022-12-04T03:56:06.990Z,17.97
2022-12-04T03:58:40.049Z,16.47
2022-12-04T04:01:13.464Z,16.70
2022-12-04T04:03:46.567Z,15.03
2022-12-04T04:06:19.995Z,19.00
2022-12-04T04:08:53.694Z,19.10
2022-12-04T04:11:30.504Z,21.73
2022-12-04T04:14:23.480Z,17.03
2022-12-04T04:17:16.117Z,21.37
2022-12-04T04:20:07.135Z,21.50
2022-12-04T04:22:56.302Z,18.37
2022-12-04T04:25:28.530Z,21.80
2022-12-04T04:28:00.423Z,21.07
2022-12-04T04:30:31.882Z,19.50
2022-12-04T04:33:08.098Z,19.80
2022-12-04T04:35:43.521Z,16.30
2022-12-04T04:38:18.794Z,17.93
2022-12-04T04:40:53.334Z,17.13
2022-12-04T04:43:26.857Z,16.07
2022-12-04T04:45:59.487Z,16.50
2022-12-04T04:48:35.124Z,17.17
2022-12-04T04:51:05.978Z,18.87
2022-12-04T04:53:41.866Z,13.33
2022-12-04T04:56:12.137Z,17.17
2022-12-04T04:58:46.111Z,18.27
2022-12-04T05:01:18.346Z,14.50
2022-12-04T05:03:49.800Z,18.10
2022-12-04T05:06:19.405Z,17.13
2022-12-04T05:08:49.544Z,18.07
2022-12-04T05:11:19.944Z,17.73
2022-12-04T05:13:51.549Z,19.43
2022-12-04T05:16:21.494Z,20.50
2022-12-04T05:19:10.592Z,15.47
2022-12-04T05:21:43.435Z,17.67
2022-12-04T05:24:13.593Z,15.30
2022-12-04T05:26:43.665Z,19.10
2022-12-04T05:29:14.522Z,20.93
2022-12-04T05:31:44.332Z,19.60
2022-12-04T05:34:16.603Z,14.97
2022-12-04T05:36:46.515Z,17.37
2022-12-04T05:39:16.589Z,14.80
2022-12-04T05:41:48.304Z,16.20
2022-12-04T05:44:18.168Z,20.00
2022-12-04T05:46:48.178Z,19.53
2022-12-04T05:49:20.038Z,17.80
2022-12-04T05:51:50.863Z,24.03
2022-12-04T05:54:21.240Z,22.17
2022-12-04T05:56:51.044Z,20.50
2022-12-04T05:59:20.993Z,20.27
2022-12-04T06:01:51.162Z,19.50
2022-12-04T06:04:22.251Z,17.63
2022-12-04T06:06:52.223Z,18.23
2022-12-04T06:09:22.071Z,15.73
2022-12-04T06:11:52.328Z,17.80
2022-12-04T06:14:22.101Z,23.17
2022-12-04T06:16:52.050Z,23.73
2022-12-04T06:19:24.743Z,19.97
2022-12-04T06:21:55.583Z,19.30
2022-12-04T06:24:28.256Z,22.30
2022-12-04T06:27:29.257Z,19.93
2022-12-04T06:29:49.607Z,20.17
2022-12-04T06:32:21.830Z,17.20
2022-12-04T06:34:55.449Z,19.63
2022-12-04T06:37:26.545Z,17.53
2022-12-04T06:39:56.943Z,18.47
2022-12-04T06:42:27.422Z,19.40
2022-12-04T06:44:57.271Z,21.80
2022-12-04T06:47:27.205Z,18.60
2022-12-04T06:49:59.391Z,18.70
2022-12-04T06:52:29.221Z,16.77
2022-12-04T06:54:59.308Z,19.57
2022-12-04T06:57:28.968Z,16.77
2022-12-04T06:59:59.082Z,18.30
2022-12-04T07:02:28.826Z,18.53
2022-12-04T07:04:59.758Z,18.00
2022-12-04T07:07:30.182Z,14.80
2022-12-04T07:10:00.031Z,18.67
2022-12-04T07:12:30.479Z,21.23
2022-12-04T07:15:00.671Z,17.37
2022-12-04T07:17:30.839Z,16.27
2022-12-04T07:20:03.229Z,15.23
2022-12-04T07:22:32.949Z,18.90
2022-12-04T07:25:02.691Z,16.30
2022-12-04T07:27:33.505Z,18.07
2022-12-04T07:30:03.103Z,16.23
2022-12-04T07:32:33.546Z,18.40
2022-12-04T07:35:06.037Z,21.17
2022-12-04T07:37:38.241Z,19.17
2022-12-04T07:40:09.655Z,21.00
2022-12-04T07:42:39.461Z,16.43
2022-12-04T07:45:10.222Z,24.40
2022-12-04T07:47:39.952Z,19.73
2022-12-04T07:50:13.226Z,16.50
2022-12-04T07:52:43.059Z,20.60
2022-12-04T07:55:20.155Z,21.50
2022-12-04T07:57:53.026Z,23.10
2022-12-04T08:00:23.323Z,21.33
2022-12-04T08:02:53.293Z,23.20
2022-12-04T08:05:24.867Z,25.83
2022-12-04T08:07:55.178Z,18.00
2022-12-04T08:10:25.733Z,26.67
2022-12-04T08:12:55.746Z,20.60
2022-12-04T08:15:26.559Z,26.97
2022-12-04T08:17:56.359Z,25.87
2022-12-04T08:20:27.744Z,22.10
2022-12-04T08:22:59.790Z,23.57
2022-12-04T08:25:30.077Z,20.90
2022-12-04T08:28:00.024Z,31.03
2022-12-04T08:30:30.943Z,28.47
2022-12-04T08:33:01.593Z,24.30
2022-12-04T08:35:33.190Z,20.90
2022-12-04T08:38:02.925Z,26.10
2022-12-04T08:40:33.325Z,36.10
2022-12-04T08:43:03.148Z,30.20
2022-12-04T08:45:32.917Z,37.17
2022-12-04T08:48:02.709Z,31.63
2022-12-04T08:50:34.553Z,32.93
2022-12-04T08:53:05.039Z,30.67
2022-12-04T08:55:36.454Z,32.03
2022-12-04T08:58:06.263Z,33.80
2022-12-04T09:00:36.058Z,30.90
2022-12-04T09:03:06.278Z,31.57
2022-12-04T09:05:37.488Z,28.80
2022-12-04T09:08:07.928Z,27.80
2022-12-04T09:10:39.668Z,29.57
2022-12-04T09:13:09.867Z,30.10
2022-12-04T09:15:41.474Z,29.70
2022-12-04T09:18:11.814Z,26.30
2022-12-04T09:20:44.904Z,32.87
2022-12-04T09:23:16.542Z,27.57
2022-12-04T09:25:48.150Z,32.30
2022-12-04T09:28:21.596Z,24.77
2022-12-04T09:30:59.379Z,29.50
2022-12-04T09:33:30.710Z,30.20
2022-12-04T09:36:02.704Z,32.10
2022-12-04T09:38:33.390Z,32.13
2022-12-04T09:41:06.953Z,29.10
2022-12-04T09:43:41.194Z,35.97
2022-12-04T09:46:13.934Z,34.70
2022-12-04T09:48:45.054Z,32.80
2022-12-04T09:51:21.153Z,29.63
2022-12-04T09:53:56.333Z,30.27
2022-12-04T09:56:30.848Z,33.63
2022-12-04T09:59:05.353Z,32.23
2022-12-04T10:01:43.583Z,27.90
2022-12-04T10:04:14.702Z,27.83
2022-12-04T10:06:51.913Z,28.87
2022-12-04T10:09:24.208Z,26.73
2022-12-04T10:12:02.044Z,30.43
2022-12-04T10:14:48.462Z,25.23
2022-12-04T10:17:32.699Z,26.00
2022-12-04T10:20:12.057Z,31.17
2022-12-04T10:22:51.093Z,30.90
2022-12-04T10:25:23.963Z,30.00
2022-12-04T10:27:57.608Z,28.40
2022-12-04T10:30:30.078Z,24.67
2022-12-04T10:33:02.768Z,25.80
2022-12-04T10:35:33.682Z,28.37
2022-12-04T10:38:08.609Z,25.13
2022-12-04T10:40:41.853Z,32.90
2022-12-04T10:43:18.233Z,24.33
2022-12-04T10:45:48.020Z,26.97
2022-12-04T10:48:24.973Z,25.30
2022-12-04T10:50:54.999Z,22.30
2022-12-04T10:53:31.986Z,19.87
2022-12-04T10:56:11.830Z,20.83
2022-12-04T10:58:41.499Z,21.50
2022-12-04T11:01:13.789Z,18.43
2022-12-04T11:03:46.252Z,21.97
2022-12-04T11:06:17.888Z,20.25
2022-12-04T11:08:53.887Z,21.40
2022-12-04T11:11:27.968Z,21.60
2022-12-04T11:14:06.000Z,19.10
2022-12-04T11:16:38.779Z,17.93
2022-12-04T11:19:27.418Z,18.90
2022-12-04T11:22:00.019Z,21.97
2022-12-04T11:24:34.171Z,18.43
2022-12-04T11:27:04.844Z,19.87
2022-12-04T11:29:37.603Z,19.20
2022-12-04T11:32:08.570Z,17.53
2022-12-04T11:34:41.868Z,16.43
2022-12-04T11:37:21.562Z,17.70
2022-12-04T11:39:53.755Z,18.83
2022-12-04T11:42:27.301Z,16.97
2022-12-04T11:44:58.916Z,19.20
2022-12-04T11:47:30.493Z,19.83
2022-12-04T11:50:12.258Z,18.53
2022-12-04T11:52:56.217Z,17.60
2022-12-04T11:55:30.511Z,17.30
2022-12-04T11:58:18.940Z,22.30
2022-12-04T12:00:55.184Z,17.90
2022-12-04T12:03:28.356Z,19.40
2022-12-04T12:06:27.168Z,19.50
2022-12-04T12:09:05.023Z,17.87
2022-12-04T12:11:39.109Z,18.53
2022-12-04T12:14:14.712Z,17.73
2022-12-04T12:20:10.539Z,16.50
2022-12-04T12:22:54.249Z,17.60
2022-12-04T12:25:28.749Z,15.10
2022-12-04T12:28:07.452Z,15.50
2022-12-04T12:30:46.440Z,14.50
2022-12-04T12:33:20.951Z,17.63
2022-12-04T12:36:02.753Z,19.57
2022-12-04T12:38:35.749Z,20.00
2022-12-04T12:41:08.701Z,22.10
2022-12-04T12:43:40.897Z,20.40
2022-12-04T12:46:14.625Z,17.13
2022-12-04T12:48:56.572Z,22.03
2022-12-04T12:51:35.990Z,21.50
2022-12-04T12:54:15.596Z,21.20
2022-12-04T12:56:50.146Z,21.40
2022-12-04T12:59:23.675Z,20.90
2022-12-04T13:02:01.052Z,20.93
2022-12-04T13:04:35.173Z,23.50
2022-12-04T13:07:16.660Z,21.30
2022-12-04T13:09:51.739Z,24.90
2022-12-04T13:12:22.024Z,21.30
2022-12-04T13:14:53.649Z,23.50
2022-12-04T13:17:28.905Z,24.03
2022-12-04T13:20:03.137Z,27.37
2022-12-04T13:22:42.425Z,19.17
2022-12-04T13:25:20.913Z,17.93
2022-12-04T13:27:58.017Z,20.33
2022-12-04T13:30:33.909Z,22.83
2022-12-04T13:33:36.573Z,20.20
2022-12-04T13:36:33.668Z,17.73
2022-12-04T13:39:21.138Z,21.27
2022-12-04T13:42:00.204Z,21.80
2022-12-04T13:44:34.484Z,24.57
2022-12-04T13:47:07.856Z,20.57
2022-12-04T13:49:42.394Z,21.73
2022-12-04T13:52:25.486Z,25.30
2022-12-04T13:55:00.044Z,22.83
2022-12-04T13:57:31.340Z,24.83
2022-12-04T14:00:09.818Z,20.50
2022-12-04T14:02:50.647Z,31.70
2022-12-04T14:05:29.014Z,22.00
2022-12-04T14:08:07.316Z,22.60
2022-12-04T14:10:39.452Z,22.60
2022-12-04T14:13:19.736Z,23.27
2022-12-04T14:15:49.859Z,25.37
2022-12-04T14:18:28.770Z,24.13
2022-12-04T14:21:05.174Z,22.67
2022-12-04T14:23:40.165Z,21.93
2022-12-04T14:26:37.415Z,21.33
2022-12-04T14:29:41.208Z,22.70
2022-12-04T14:32:15.513Z,22.23
2022-12-04T14:34:48.226Z,20.97
2022-12-04T14:37:30.253Z,25.87
2022-12-04T14:40:00.286Z,18.33
2022-12-04T14:42:35.743Z,22.73
2022-12-04T14:45:17.198Z,19.43
2022-12-04T14:47:54.988Z,25.83
2022-12-04T14:50:33.913Z,24.27
2022-12-04T14:53:10.923Z,22.60
2022-12-04T14:55:46.608Z,22.90
2022-12-04T14:58:35.073Z,17.97
2022-12-04T15:01:07.299Z,23.20
2022-12-04T15:03:38.800Z,19.47
2022-12-04T15:06:13.738Z,20.30
2022-12-04T15:08:52.073Z,22.10
2022-12-04T15:11:40.034Z,18.80
2022-12-04T15:14:15.215Z,21.73
2022-12-04T15:16:46.337Z,23.17
2022-12-04T15:19:24.079Z,18.90
2022-12-04T15:21:55.679Z,18.97
2022-12-04T15:24:26.286Z,19.57
2022-12-04T15:26:56.318Z,20.07
2022-12-04T15:29:28.793Z,15.47
2022-12-04T15:32:01.179Z,17.00
2022-12-04T15:34:37.674Z,16.43
2022-12-04T15:37:10.232Z,18.83
2022-12-04T15:39:40.173Z,12.63
2022-12-04T15:42:18.124Z,11.70
2022-12-04T15:44:55.869Z,12.33
2022-12-04T15:47:28.533Z,9.03
2022-12-04T15:50:09.708Z,9.40
2022-12-04T15:52:51.564Z,10.93
2022-12-04T15:55:25.634Z,11.23
2022-12-04T15:57:57.972Z,9.60
2022-12-04T16:00:30.832Z,12.97
2022-12-04T16:03:02.164Z,10.87
2022-12-04T16:05:37.255Z,8.90
2022-12-04T16:11:06.401Z,7.87
2022-12-04T16:13:38.618Z,8.77
2022-12-04T16:16:10.428Z,9.37
2022-12-04T16:18:40.484Z,8.23
2022-12-04T16:21:14.373Z,9.70
2022-12-04T16:23:44.725Z,8.40
2022-12-04T16:26:16.868Z,9.10
2022-12-04T16:28:47.837Z,11.00
2022-12-04T16:31:20.753Z,10.97
2022-12-04T16:33:50.728Z,11.23
2022-12-04T16:36:21.129Z,12.87
2022-12-04T16:38:52.000Z,10.30
2022-12-04T16:41:24.465Z,10.73
2022-12-04T16:43:57.568Z,11.00
2022-12-04T16:46:29.288Z,10.83
2022-12-04T16:49:05.795Z,11.77
2022-12-04T16:51:39.768Z,13.50
2022-12-04T16:54:10.498Z,17.10
2022-12-04T16:56:41.999Z,15.17
2022-12-04T16:59:12.737Z,12.67
2022-12-04T17:01:47.818Z,10.87
2022-12-04T17:04:18.879Z,15.47
2022-12-04T17:06:48.699Z,18.43
2022-12-04T17:09:18.959Z,17.70
2022-12-04T17:11:50.651Z,16.13
2022-12-04T17:14:20.684Z,18.20
2022-12-04T17:16:52.300Z,22.07
2022-12-04T17:19:22.540Z,19.03
2022-12-04T17:21:52.611Z,19.33
2022-12-04T17:24:23.114Z,14.33
2022-12-04T17:26:54.320Z,13.03
2022-12-04T17:29:24.305Z,11.60
2022-12-04T17:31:55.039Z,13.23
2022-12-04T17:34:24.903Z,10.63
2022-12-04T17:36:58.113Z,11.77
2022-12-04T17:39:28.714Z,10.70
2022-12-04T17:41:59.964Z,10.50
2022-12-04T17:44:30.456Z,10.50
2022-12-04T17:46:59.951Z,10.70
2022-12-04T17:49:31.107Z,10.93
2022-12-04T17:52:00.738Z,11.67
2022-12-04T17:54:30.394Z,12.47
2022-12-04T17:57:01.973Z,11.30
2022-12-04T17:59:31.932Z,10.00
2022-12-04T18:02:01.882Z,10.27
2022-12-04T18:04:31.656Z,10.07
2022-12-04T18:07:01.576Z,9.37
2022-12-04T18:09:31.697Z,8.50
2022-12-04T18:12:05.468Z,8.47
2022-12-04T18:14:36.264Z,8.03
2022-12-04T18:17:06.007Z,9.23
2022-12-04T18:19:36.475Z,8.60
2022-12-04T18:22:06.286Z,8.03
2022-12-04T18:24:36.789Z,8.90
2022-12-04T18:27:09.077Z,8.60
2022-12-04T18:29:38.894Z,8.50
2022-12-04T18:32:08.934Z,7.60
2022-12-04T18:34:39.083Z,7.23
2022-12-04T18:37:09.532Z,9.33
2022-12-04T18:39:39.538Z,9.53
2022-12-04T18:42:11.209Z,12.33
2022-12-04T18:44:41.947Z,11.50
2022-12-04T18:47:12.630Z,10.53
2022-12-04T18:49:43.083Z,11.23
2022-12-04T18:52:13.826Z,10.73
2022-12-04T18:54:44.328Z,13.00
2022-12-04T18:57:16.245Z,13.10
2022-12-04T18:59:46.563Z,11.27
2022-12-04T19:02:16.435Z,9.90
2022-12-04T19:04:46.869Z,11.93
2022-12-04T19:07:20.413Z,10.80
2022-12-04T19:12:44.793Z,11.17
2022-12-04T19:15:15.199Z,14.33
2022-12-04T19:17:45.458Z,11.60
2022-12-04T19:20:17.040Z,11.03
2022-12-04T19:22:47.023Z,9.50
2022-12-04T19:25:18.557Z,9.30
2022-12-04T19:27:50.373Z,9.20
2022-12-04T19:30:21.052Z,8.80
2022-12-04T19:32:51.166Z,9.33
2022-12-04T19:35:20.906Z,8.40
2022-12-04T19:37:54.644Z,7.43
2022-12-04T19:40:27.232Z,11.30
2022-12-04T19:43:02.849Z,13.33
2022-12-04T19:45:33.822Z,9.97
2022-12-04T19:48:05.190Z,9.67
2022-12-04T19:50:35.283Z,10.80
2022-12-04T19:53:05.187Z,10.90
2022-12-04T19:55:38.308Z,11.60
2022-12-04T19:58:09.598Z,9.40
2022-12-04T20:00:39.419Z,9.83
2022-12-04T20:03:10.334Z,11.37
2022-12-04T20:05:40.353Z,11.17
2022-12-04T20:10:38.862Z,10.60
2022-12-04T20:13:10.015Z,11.20
2022-12-04T20:15:40.439Z,9.60
2022-12-04T20:18:12.664Z,12.40
2022-12-04T20:20:45.995Z,10.10
2022-12-04T20:23:16.299Z,10.73
2022-12-04T20:25:46.274Z,9.40
2022-12-04T20:28:17.268Z,11.00
2022-12-04T20:30:47.607Z,11.70
2022-12-04T20:33:17.475Z,13.10
2022-12-04T20:35:47.258Z,12.87
2022-12-04T20:38:17.044Z,13.40
2022-12-04T20:40:47.428Z,12.70
2022-12-04T20:43:18.333Z,11.70
2022-12-04T20:45:48.208Z,10.47
2022-12-04T20:48:17.799Z,11.23
2022-12-04T20:50:47.364Z,11.00
2022-12-04T20:53:17.329Z,10.20
2022-12-04T20:55:55.325Z,10.30
2022-12-04T20:58:26.944Z,10.90
2022-12-04T21:01:00.188Z,10.43
2022-12-04T21:03:30.368Z,10.93
2022-12-04T21:06:00.752Z,11.10
2022-12-04T21:08:47.994Z,9.57
2022-12-04T21:11:18.628Z,10.60
2022-12-04T21:14:07.464Z,10.00
2022-12-04T21:16:38.189Z,10.70
2022-12-04T21:19:11.024Z,10.27
2022-12-04T21:21:42.100Z,10.10
2022-12-04T21:24:14.701Z,9.80
2022-12-04T21:26:44.861Z,8.93
2022-12-04T21:29:17.304Z,9.27
2022-12-04T21:31:47.656Z,10.10
2022-12-04T21:34:18.803Z,13.67
2022-12-04T21:36:48.560Z,9.73
2022-12-04T21:39:20.068Z,9.80
2022-12-04T21:42:16.139Z,10.00
2022-12-04T21:44:47.608Z,9.43
2022-12-04T21:47:17.384Z,10.67
2022-12-04T21:49:47.923Z,12.23
2022-12-04T21:52:18.058Z,11.87
2022-12-04T21:54:52.148Z,10.63
2022-12-04T21:57:22.997Z,11.70
2022-12-04T21:59:55.179Z,10.97
2022-12-04T22:02:25.607Z,12.07
2022-12-04T22:04:55.377Z,12.60
2022-12-04T22:07:25.572Z,11.90
2022-12-04T22:09:55.950Z,13.20
2022-12-04T22:12:48.558Z,13.47
2022-12-04T22:15:17.700Z,11.83
2022-12-04T22:17:47.694Z,12.67
2022-12-04T22:20:18.002Z,12.40
2022-12-04T22:22:49.068Z,10.77
2022-12-04T22:25:19.758Z,12.60
2022-12-04T22:27:49.881Z,12.83
2022-12-04T22:30:21.756Z,11.83
2022-12-04T22:32:53.364Z,14.67
2022-12-04T22:35:23.254Z,11.63
2022-12-04T22:37:53.403Z,10.90
2022-12-04T22:40:23.293Z,11.57
2022-12-04T22:42:53.175Z,11.33
2022-12-04T22:45:25.779Z,11.37
2022-12-04T22:47:55.909Z,10.83
2022-12-04T22:50:27.264Z,10.93
2022-12-04T22:52:57.009Z,11.83
2022-12-04T22:55:26.680Z,10.80
2022-12-04T22:57:57.574Z,13.07
2022-12-04T23:00:29.334Z,11.70
2022-12-04T23:02:59.321Z,12.10
2022-12-04T23:05:29.242Z,10.60
2022-12-04T23:07:59.035Z,14.30
2022-12-04T23:10:29.134Z,13.40
2022-12-04T23:13:02.124Z,14.87
2022-12-04T23:15:37.634Z,12.67
2022-12-04T23:18:08.614Z,14.70
2022-12-04T23:20:39.538Z,13.67
2022-12-04T23:23:09.293Z,15.20
2022-12-04T23:25:43.892Z,14.73
2022-12-04T23:28:13.588Z,14.77
2022-12-04T23:30:51.756Z,18.10
2022-12-04T23:33:22.710Z,15.57
2022-12-04T23:35:55.891Z,14.57
2022-12-04T23:38:27.658Z,16.23
2022-12-04T23:41:03.600Z,13.80
2022-12-04T23:43:33.618Z,13.80
2022-12-04T23:46:11.025Z,12.87
2022-12-04T23:48:42.722Z,12.93
2022-12-04T23:51:14.549Z,14.90
2022-12-04T23:53:45.112Z,13.07
2022-12-04T23:56:18.035Z,12.37
2022-12-04T23:58:49.403Z,12.80
